Aktualne dane pomiarowe

Uwaga, wersja testowa! Automatyczne pobieranie danych za pomocą narzędzi lub skryptów to umożliwiających jest zabronione.

Dane meteo z obszaru Polski uzyskane na podstawie depesz SYNOP pobieranych co godzinę z NWS. Najedź myszką na symbol przedstawiony w tabeli, aby uzyskać informacje co do jego znaczenia. Prosimy pamiętać, że to testowa wersja strony, która jeszcze nie jest ukończona. Stworzono również jest krótki FAQ dotyczący korzystania z tej podstrony Anomalie temperatury w chwili obecnej odniesione są do okresu referencyjnego 1951-2016. Okres ten będzie później zmieniony na 1981-2010. Kliknij ikonę aby pobrać plik CSV. Kliknij ikonę aby wygenerować mapę synoptyczną dla danego terminu.

Wybierz Datę:    

        

Koło (12345)

Dane terminowe dla wybranej stacji. Kliknij datę, aby otrzymać dane z tego terminu dla wszystkich stacji.

TemperaturaZachmurzenieWiatrCiśnienieOpadyPogoda
 Data t td wb tx tn tg rh  Nt Nl Cl Cm Ch ws wd g1 g2 wx mslp ppp ch 24h 12h t ww ww w1 w2  
2019-07-12 23:00:00 15.8 12.5 13.6--- 8135.0--2wx--21009.9 995.9 -0.2---------
2019-07-12 22:00:00 16.1 12.6 13.8--- 8035.0--2wx---1009.9 996.0 0.2---wx-----
2019-07-12 21:00:00 17.0 12.1 13.8--- 7335.0--2wx--21010.1 996.2 1.1---wx-----
2019-07-12 20:00:00 17.5 12.0 14.0--- 7035.0--2wx--21010.0 996.1 1.2---------
2019-07-12 19:00:00 18.1 12.1 14.3--- 6835.0--5wx--51009.6 995.8 0.7---------
2019-07-12 18:00:00 19.2 11.7 14.5 26.5 17.8- 6235.0--5wx--51008.9 995.1 0.2- 3.012------
2019-07-12 17:00:00 19.2 12.2 14.8--- 6435.0--2wx--21008.7 994.9 0.1---wx-----
2019-07-12 16:00:00 18.5 12.3 14.5--- 6735.0--2wx--21008.9 995.1 0.2---wx-----
2019-07-12 15:00:00 19.8 11.0 14.4--- 5735.0--3wx--31008.6 994.9 -0.2---wx-----
2019-07-12 14:00:00 25.6 6.7 15.0--- 3035.0--2wx--21008.3 994.8 -0.7---------
2019-07-12 13:00:00 25.0 7.2 15.0--- 3235.0--2wx--21008.4 994.9 -1.0---------
2019-07-12 12:00:00 25.2 5.9 14.6--- 2935.0--2wx-821008.6 995.1 -1.0- 0.06------
2019-07-12 11:00:00 24.3 6.5 14.4--- 3235.0--3wx--31009.0 995.5 -0.8---------
2019-07-12 10:00:00 25.2 6.9 15.0--- 3135.0--3wx8831009.4 995.9 -0.6---------
2019-07-12 09:00:00 24.4 7.9 15.0--- 3535.0--1wx---1009.7 996.1 -0.4---------
2019-07-12 08:00:00 23.5 7.1 14.3--- 3535.0--2wx--21009.9 996.3 -0.3---------
2019-07-12 07:00:00 21.1 10.0 14.5--- 4935.0--2wx--21010.2 996.5 -0.1---------
2019-07-12 06:00:00 18.2 10.1 13.3 21.2 10.1 6 5935.0--1wx--11010.3 996.5 -0.2- 0.012----- 9.8
2019-07-12 05:00:00 14.4 10.6 11.9--- 7835.0--1wx---1010.6 996.6 -0.3---------
2019-07-12 04:00:00 11.8 9.5 10.3--- 8635.0--2wx--21010.8 996.6 -0.5---------
2019-07-12 03:00:00 10.8 8.6 9.3--- 8635.0--2wx--21010.9 996.7 -0.6---------
2019-07-12 02:00:00 10.4 7.6 8.6--- 8335.0--2wx--21011.1 996.9 -0.7---------
2019-07-12 01:00:00 12.5 8.8 10.1--- 7835.0--1wx--11011.2 997.1 -0.5---------
2019-07-12 00:00:00 11.7 8.0 9.4--- 7835.0--2wx--21011.5 997.3 -0.2- 0.06------
2019-07-11 23:00:00 13.5 8.3 10.3--- 7135.0--2wx--21011.7 997.6 0.1---------
2019-07-11 22:00:00 14.6 8.8 11.1--- 6835.0--1wx--11011.6 997.6 0.5---------
2019-07-11 21:00:00 15.4 8.4 11.2--- 6335.0--2wx--21011.5 997.5 0.4---------
2019-07-11 20:00:00 17.1 8.2 11.9--- 5635.0--1wx--11011.4 997.5 0.5---------
2019-07-11 19:00:00 18.1 7.8 12.2--- 5135.0--1wx--11011.0 997.1 0.1---------
2019-07-11 18:00:00 21.2 6.3 13.0 23.0 13.9- 3835.0--2wx--21010.8 997.1 -0.3- 0.012------
2019-07-11 17:00:00 22.3 6.1 13.4--- 3535.0--2wx--21010.7 997.0 -0.7---------
2019-07-11 16:00:00 22.4 6.2 13.5--- 3535.0--2wx--21010.7 997.0 -0.9---------
2019-07-11 15:00:00 22.2 7.2 13.8--- 3835.0--3wx--31011.1 997.4 -0.8---------
2019-07-11 14:00:00 20.8 6.7 13.0--- 4035.0--2wx--21011.4 997.7 -0.8---------
2019-07-11 13:00:00 20.6 6.9 13.0--- 4135.0--3wx--31011.7 997.9 -0.8---------
2019-07-11 12:00:00 20.5 7.8 13.3--- 4435.0--3wx--31012.0 998.2 -0.7- 0.06------
2019-07-11 11:00:00 19.0 7.4 12.4--- 4735.0--2wx--21012.3 998.5 -0.3---------
2019-07-11 10:00:00 18.3 8.0 12.4--- 5135.0--4wx--41012.6 998.7 -0.1---------
2019-07-11 09:00:00 17.3 7.6 11.7--- 5335.0--3wx--31012.8 998.9 0.3---------
2019-07-11 08:00:00 17.2 9.1 12.4--- 5935.0--2wx--21012.7 998.8 0.4---------
2019-07-11 07:00:00 15.3 10.1 12.0--- 7135.0--2wx---1012.8 998.8 0.8---------
2019-07-11 06:00:00 13.9 11.2 12.1 17.3 10.9 9 8435.0--3wx--31012.7 998.6 0.7 5.7 0.712----- 3.7
2019-07-11 05:00:00 12.7 11.6 11.9--- 9335.0--2wx--21012.5 998.4 0.5---------
2019-07-11 04:00:00 11.2 10.3 10.5--- 9422.0--2wx--21012.2 998.0 0.0---------
2019-07-11 03:00:00 11.3 10.2 10.5--- 9323.0--1wx--11012.1 997.9 -0.1---------
2019-07-11 02:00:00 12.1 10.8 11.2--- 9235.0--2wx--21012.1 997.9 -0.7---------
2019-07-11 01:00:00 12.2 10.8 11.2--- 9135.0--2wx--21012.2 998.0 -0.5---------
2019-07-11 00:00:00 12.4 10.8 11.3--- 9035.0--1wx--11012.2 998.0 -0.6- 0.76wx-----
1.7 ms

 

Print Friendly, PDF & Email